Time;durP1;ratioP1;P1;durP2;ratioP2;P2;SDS_P1;SDS_P2;PMS_P1;PMS_P2;Temp;Humidity;BMP_temperature;BMP_pressure;BME280_temperature;BME280_humidity;BME280_pressure;Samples;Min_cycle;Max_cycle;Signal;HPM_P1;HPM_P2
2022/07/10 00:01:48;;;;;;;;;;;25.30;40.90;;;;;;8463010;28;19907;-43
2022/07/10 00:05:49;;;;;;;;;;;25.30;41.00;;;;;;8469957;28;19919;-43
2022/07/10 00:09:49;;;;;;;;;;;25.30;41.00;;;;;;8469779;28;20361;-43
2022/07/10 00:13:50;;;;;;;;;;;25.30;41.00;;;;;;8469235;28;20011;-43
2022/07/10 00:17:50;;;;;;;;;;;25.20;40.90;;;;;;8469526;28;19908;-43
2022/07/10 00:21:51;;;;;;;;;;;25.20;41.40;;;;;;8469860;28;19957;-43
2022/07/10 00:25:51;;;;;;;;;;;25.20;40.90;;;;;;8468833;28;19947;-43
2022/07/10 00:29:52;;;;;;;;;;;25.20;40.90;;;;;;8469214;28;19918;-42
2022/07/10 00:33:52;;;;;;;;;;;25.20;41.00;;;;;;8469194;28;19920;-43
2022/07/10 00:37:52;;;;;;;;;;;25.20;40.90;;;;;;8468557;28;19915;-43
2022/07/10 00:41:53;;;;;;;;;;;25.20;41.00;;;;;;8469317;28;20337;-43
2022/07/10 00:45:53;;;;;;;;;;;25.20;41.00;;;;;;8468890;28;19912;-43
2022/07/10 00:49:54;;;;;;;;;;;25.20;41.00;;;;;;8468156;28;20266;-43
2022/07/10 00:53:55;;;;;;;;;;;25.20;41.00;;;;;;8468793;28;19927;-43
2022/07/10 00:57:56;;;;;;;;;;;25.20;41.00;;;;;;8468340;28;19908;-44
2022/07/10 01:01:56;;;;;;;;;;;25.20;41.00;;;;;;8449865;28;19907;-43
2022/07/10 01:05:58;;;;;;;;;;;25.10;40.90;;;;;;8467497;28;19919;-43
2022/07/10 01:09:59;;;;;;;;;;;25.10;40.90;;;;;;8466912;28;20359;-44
2022/07/10 01:14:03;;;;;;;;;;;25.10;41.00;;;;;;8466061;28;19920;-43
2022/07/10 01:18:03;;;;;;;;;;;25.10;41.00;;;;;;8467755;28;19937;-43
2022/07/10 01:22:04;;;;;;;;;;;25.10;41.00;;;;;;8467945;28;19908;-42
2022/07/10 01:26:04;;;;;;;;;;;25.10;41.00;;;;;;8467156;28;19911;-44
2022/07/10 01:30:05;;;;;;;;;;;25.10;41.00;;;;;;8467615;28;19912;-43
2022/07/10 01:34:07;;;;;;;;;;;25.10;41.00;;;;;;8467037;28;20272;-44
2022/07/10 01:38:07;;;;;;;;;;;25.10;41.00;;;;;;8467460;28;19943;-42
2022/07/10 01:42:08;;;;;;;;;;;25.00;41.50;;;;;;8467150;28;19907;-43
2022/07/10 01:46:10;;;;;;;;;;;25.00;41.00;;;;;;8466858;28;19912;-43
2022/07/10 01:50:11;;;;;;;;;;;25.00;41.00;;;;;;8466301;28;19919;-43
2022/07/10 01:54:11;;;;;;;;;;;25.00;41.00;;;;;;8466573;28;19920;-43
2022/07/10 01:58:12;;;;;;;;;;;25.00;41.00;;;;;;8466852;28;19952;-44
2022/07/10 02:02:12;;;;;;;;;;;25.00;41.10;;;;;;8465798;28;19919;-44
2022/07/10 02:06:13;;;;;;;;;;;25.00;41.10;;;;;;8466133;28;19911;-43
2022/07/10 02:10:13;;;;;;;;;;;25.00;41.10;;;;;;8466110;28;20010;-43
2022/07/10 02:14:14;;;;;;;;;;;25.00;41.20;;;;;;8465294;28;19987;-43
2022/07/10 02:18:15;;;;;;;;;;;25.00;41.10;;;;;;8466220;28;20280;-43
2022/07/10 02:22:15;;;;;;;;;;;24.90;41.10;;;;;;8465902;28;19986;-43
2022/07/10 02:26:16;;;;;;;;;;;25.00;41.10;;;;;;8464590;28;19922;-44
2022/07/10 02:30:16;;;;;;;;;;;25.00;41.10;;;;;;8465434;28;19972;-43
2022/07/10 02:34:17;;;;;;;;;;;24.90;41.10;;;;;;8465264;28;19923;-43
2022/07/10 02:38:17;;;;;;;;;;;24.90;41.10;;;;;;8464820;28;19908;-43
2022/07/10 02:42:17;;;;;;;;;;;24.90;41.20;;;;;;8465269;28;19935;-43
2022/07/10 02:46:18;;;;;;;;;;;24.90;41.20;;;;;;8464959;28;19916;-43
2022/07/10 02:50:18;;;;;;;;;;;24.90;41.20;;;;;;8464205;28;19912;-43
2022/07/10 02:54:19;;;;;;;;;;;24.90;41.20;;;;;;8464810;28;19924;-44
2022/07/10 02:58:19;;;;;;;;;;;24.90;41.20;;;;;;8464687;28;19942;-44
2022/07/10 03:02:20;;;;;;;;;;;24.90;41.20;;;;;;8445887;28;19919;-43
2022/07/10 03:06:20;;;;;;;;;;;24.80;41.20;;;;;;8464493;28;19999;-45
2022/07/10 03:10:21;;;;;;;;;;;24.80;41.20;;;;;;8464136;28;19975;-43
2022/07/10 03:14:21;;;;;;;;;;;24.80;41.20;;;;;;8463556;28;19924;-44
2022/07/10 03:18:22;;;;;;;;;;;24.80;41.20;;;;;;8463949;28;19919;-44
2022/07/10 03:22:22;;;;;;;;;;;24.80;41.20;;;;;;8463934;28;20010;-44
2022/07/10 03:26:23;;;;;;;;;;;24.80;41.20;;;;;;8463247;28;19954;-44
2022/07/10 03:30:23;;;;;;;;;;;24.80;41.20;;;;;;8463647;28;19916;-45
2022/07/10 03:34:24;;;;;;;;;;;24.80;41.20;;;;;;8463757;28;20406;-44
2022/07/10 03:38:25;;;;;;;;;;;24.80;41.20;;;;;;8463048;28;19920;-43
2022/07/10 03:42:26;;;;;;;;;;;24.80;41.30;;;;;;8463259;28;19923;-44
2022/07/10 03:46:26;;;;;;;;;;;24.80;41.20;;;;;;8462822;28;19935;-44
2022/07/10 03:50:27;;;;;;;;;;;24.80;41.30;;;;;;8463466;28;20356;-44
2022/07/10 03:54:28;;;;;;;;;;;24.70;41.20;;;;;;8463120;28;19959;-44
2022/07/10 03:58:28;;;;;;;;;;;24.70;41.20;;;;;;8462938;28;19934;-44
2022/07/10 04:02:29;;;;;;;;;;;24.70;41.30;;;;;;8462902;28;19919;-44
2022/07/10 04:06:29;;;;;;;;;;;24.70;41.30;;;;;;8454256;28;20337;-44
2022/07/10 04:10:31;;;;;;;;;;;24.70;41.30;;;;;;8462465;28;19912;-43
2022/07/10 04:14:31;;;;;;;;;;;24.70;41.30;;;;;;8462777;28;19919;-43
2022/07/10 04:18:31;;;;;;;;;;;24.70;41.30;;;;;;8463236;28;20013;-43
2022/07/10 04:22:32;;;;;;;;;;;24.70;41.30;;;;;;8462240;28;20384;-44
2022/07/10 04:26:33;;;;;;;;;;;24.60;41.30;;;;;;8462716;28;19912;-44
2022/07/10 04:30:33;;;;;;;;;;;24.70;41.30;;;;;;8462649;28;19912;-44
2022/07/10 04:34:34;;;;;;;;;;;24.70;41.30;;;;;;8462209;28;19930;-44
2022/07/10 04:38:34;;;;;;;;;;;24.60;41.30;;;;;;8462740;28;19953;-44
2022/07/10 04:42:35;;;;;;;;;;;24.60;41.30;;;;;;8462726;28;20287;-43
2022/07/10 04:46:36;;;;;;;;;;;24.60;41.30;;;;;;8461980;28;19990;-43
2022/07/10 04:50:36;;;;;;;;;;;24.60;41.30;;;;;;8466644;28;19922;-43
2022/07/10 04:54:36;;;;;;;;;;;24.60;41.30;;;;;;8468689;28;19919;-43
2022/07/10 04:58:37;;;;;;;;;;;24.60;41.30;;;;;;8468128;28;19912;-43
2022/07/10 05:02:37;;;;;;;;;;;24.60;41.30;;;;;;8468006;28;19912;-43
2022/07/10 05:06:38;;;;;;;;;;;24.60;41.30;;;;;;8467999;28;20048;-43
2022/07/10 05:10:39;;;;;;;;;;;24.60;41.30;;;;;;8467446;28;20429;-43
2022/07/10 05:14:40;;;;;;;;;;;24.60;41.30;;;;;;8468019;28;19916;-43
2022/07/10 05:18:40;;;;;;;;;;;24.60;41.30;;;;;;8467787;28;20238;-43
2022/07/10 05:22:41;;;;;;;;;;;24.60;41.30;;;;;;8467096;28;20280;-43
2022/07/10 05:26:41;;;;;;;;;;;24.60;41.30;;;;;;8467300;28;19915;-44
2022/07/10 05:30:42;;;;;;;;;;;24.60;41.30;;;;;;8467481;28;20321;-43
2022/07/10 05:34:42;;;;;;;;;;;24.60;41.30;;;;;;8466797;28;19920;-43
2022/07/10 05:38:43;;;;;;;;;;;24.70;41.80;;;;;;8467198;28;19912;-44
2022/07/10 05:42:44;;;;;;;;;;;24.70;41.20;;;;;;8467046;28;19918;-43
2022/07/10 05:46:45;;;;;;;;;;;24.70;41.20;;;;;;8466427;28;19919;-43
2022/07/10 05:50:45;;;;;;;;;;;24.70;41.30;;;;;;8466742;28;19918;-44
2022/07/10 05:54:46;;;;;;;;;;;24.60;41.20;;;;;;8466956;28;19919;-44
2022/07/10 05:58:46;;;;;;;;;;;24.60;41.20;;;;;;8465950;28;19976;-44
2022/07/10 06:02:47;;;;;;;;;;;24.60;41.30;;;;;;8465713;28;20311;-44
2022/07/10 06:06:48;;;;;;;;;;;24.60;41.30;;;;;;8466240;28;19968;-43
2022/07/10 06:10:48;;;;;;;;;;;24.60;41.30;;;;;;8465619;28;20345;-44
2022/07/10 06:14:49;;;;;;;;;;;24.60;41.30;;;;;;8466329;28;19934;-44
2022/07/10 06:18:50;;;;;;;;;;;24.70;41.30;;;;;;8466099;28;19918;-44
2022/07/10 06:22:50;;;;;;;;;;;24.70;41.30;;;;;;8465109;28;19919;-43
2022/07/10 06:26:51;;;;;;;;;;;24.70;41.30;;;;;;8465500;28;20274;-43
2022/07/10 06:30:51;;;;;;;;;;;24.70;41.30;;;;;;8465363;28;19919;-43
2022/07/10 06:34:52;;;;;;;;;;;24.70;41.20;;;;;;8464736;28;19919;-43
2022/07/10 06:38:53;;;;;;;;;;;24.70;41.20;;;;;;8465400;28;19966;-43
2022/07/10 06:42:53;;;;;;;;;;;24.70;41.20;;;;;;8464998;28;19912;-43
2022/07/10 06:51:13;;;;;;;;;;;24.70;41.20;;;;;;8464776;28;19915;-43
2022/07/10 06:55:13;;;;;;;;;;;24.70;41.10;;;;;;8464549;28;20006;-43
2022/07/10 06:59:14;;;;;;;;;;;24.70;41.10;;;;;;8464093;28;19986;-43
2022/07/10 07:03:14;;;;;;;;;;;24.70;41.10;;;;;;8464246;28;20368;-43
2022/07/10 07:07:15;;;;;;;;;;;24.70;41.20;;;;;;8458924;28;19908;-43
2022/07/10 07:11:15;;;;;;;;;;;24.70;41.10;;;;;;8463591;28;19911;-43
2022/07/10 07:15:16;;;;;;;;;;;24.70;41.10;;;;;;8464236;28;19916;-43
2022/07/10 07:19:17;;;;;;;;;;;24.70;41.60;;;;;;8464164;28;19916;-43
2022/07/10 07:23:18;;;;;;;;;;;24.80;41.10;;;;;;8463180;28;19919;-43
2022/07/10 07:27:18;;;;;;;;;;;24.80;41.10;;;;;;8463684;28;19930;-43
2022/07/10 07:31:19;;;;;;;;;;;24.70;41.00;;;;;;8463679;28;19916;-43
2022/07/10 07:35:20;;;;;;;;;;;24.80;41.10;;;;;;8463389;28;19920;-43
2022/07/10 07:39:20;;;;;;;;;;;24.80;41.10;;;;;;8463666;28;19912;-43
2022/07/10 07:43:21;;;;;;;;;;;24.70;41.10;;;;;;8463489;28;19939;-43
2022/07/10 07:47:21;;;;;;;;;;;24.80;41.10;;;;;;8462927;28;20376;-43
2022/07/10 07:51:21;;;;;;;;;;;24.80;41.10;;;;;;8463307;28;19931;-44
2022/07/10 07:55:22;;;;;;;;;;;24.80;41.10;;;;;;8463560;28;19930;-43
2022/07/10 07:59:23;;;;;;;;;;;24.80;41.00;;;;;;8462797;28;19919;-43
2022/07/10 08:03:23;;;;;;;;;;;24.80;41.00;;;;;;8463120;28;19912;-43
2022/07/10 08:07:32;;;;;;;;;;;24.80;41.00;;;;;;8463057;28;20325;-43
2022/07/10 08:11:33;;;;;;;;;;;24.80;41.00;;;;;;8462685;28;19919;-42
2022/07/10 08:15:36;;;;;;;;;;;24.90;41.00;;;;;;8463409;28;19920;-43
2022/07/10 08:19:37;;;;;;;;;;;24.90;41.10;;;;;;8444699;28;20276;-43
2022/07/10 08:23:38;;;;;;;;;;;24.90;41.10;;;;;;8464151;28;19919;-43
2022/07/10 08:27:38;;;;;;;;;;;24.90;41.10;;;;;;8469267;28;20044;-43
2022/07/10 08:31:39;;;;;;;;;;;24.90;41.10;;;;;;8468709;28;20283;-43
2022/07/10 08:35:40;;;;;;;;;;;24.90;41.10;;;;;;8469377;28;19919;-43
2022/07/10 08:39:40;;;;;;;;;;;24.90;41.10;;;;;;8469118;28;19918;-44
2022/07/10 08:43:41;;;;;;;;;;;24.90;41.10;;;;;;8468327;28;19907;-43
2022/07/10 08:47:42;;;;;;;;;;;24.90;41.10;;;;;;8468771;28;20369;-44
2022/07/10 08:52:02;;;;;;;;;;;24.90;41.10;;;;;;8468863;28;20310;-44
2022/07/10 08:56:02;;;;;;;;;;;25.00;41.10;;;;;;8468136;28;19988;-42
2022/07/10 09:00:03;;;;;;;;;;;25.00;41.20;;;;;;8468981;28;19915;-42
2022/07/10 09:04:04;;;;;;;;;;;25.00;41.20;;;;;;8468281;28;19994;-45
2022/07/10 09:08:20;;;;;;;;;;;25.00;41.20;;;;;;8467732;28;20430;-44
2022/07/10 09:12:21;;;;;;;;;;;25.00;41.20;;;;;;8468009;28;20363;-43
2022/07/10 09:16:22;;;;;;;;;;;25.00;41.20;;;;;;8467928;28;19998;-44
2022/07/10 09:20:27;;;;;;;;;;;25.10;41.20;;;;;;8467349;28;20423;-43
2022/07/10 09:24:34;;;;;;;;;;;25.10;41.20;;;;;;8467601;28;20285;-44
2022/07/10 09:28:34;;;;;;;;;;;25.10;41.20;;;;;;8467105;28;19912;-43
2022/07/10 09:32:35;;;;;;;;;;;25.10;41.20;;;;;;8467412;28;20045;-44
2022/07/10 09:36:36;;;;;;;;;;;25.10;41.10;;;;;;8465901;28;20269;-44
2022/07/10 09:40:37;;;;;;;;;;;25.20;41.20;;;;;;8466849;28;20389;-44
2022/07/10 09:44:37;;;;;;;;;;;25.20;41.10;;;;;;8467107;28;19912;-42
2022/07/10 09:48:37;;;;;;;;;;;25.20;41.10;;;;;;8466801;28;19912;-44
2022/07/10 09:52:38;;;;;;;;;;;25.20;41.10;;;;;;8466367;28;19994;-43
2022/07/10 09:56:42;;;;;;;;;;;25.20;41.10;;;;;;8466705;28;19915;-44
2022/07/10 10:00:46;;;;;;;;;;;25.20;41.10;;;;;;8466950;28;19911;-44
2022/07/10 10:04:47;;;;;;;;;;;25.30;41.10;;;;;;8465851;28;19947;-42
2022/07/10 10:08:54;;;;;;;;;;;25.30;41.00;;;;;;8466275;28;20312;-42
2022/07/10 10:12:57;;;;;;;;;;;25.30;41.00;;;;;;8446734;28;19911;-43
2022/07/10 10:16:58;;;;;;;;;;;25.40;41.10;;;;;;8465470;28;19911;-43
2022/07/10 10:20:59;;;;;;;;;;;25.40;41.10;;;;;;8466067;28;19912;-43
2022/07/10 10:25:00;;;;;;;;;;;25.40;41.00;;;;;;8465869;28;19993;-44
2022/07/10 10:29:01;;;;;;;;;;;25.40;41.00;;;;;;8465324;28;20257;-44
2022/07/10 10:33:02;;;;;;;;;;;25.40;41.00;;;;;;8465539;28;20395;-42
2022/07/10 10:37:02;;;;;;;;;;;25.40;41.00;;;;;;8447152;28;19936;-42
2022/07/10 10:41:31;;;;;;;;;;;25.50;41.00;;;;;;8465064;28;19908;-43
2022/07/10 10:45:34;;;;;;;;;;;25.50;40.90;;;;;;8461396;28;19911;-43
2022/07/10 10:49:49;;;;;;;;;;;25.60;41.00;;;;;;8464178;28;19916;-42
2022/07/10 10:54:04;;;;;;;;;;;25.50;40.90;;;;;;8464723;28;19920;-43
2022/07/10 10:58:11;;;;;;;;;;;25.60;40.90;;;;;;8465171;28;19912;-43
2022/07/10 11:02:24;;;;;;;;;;;25.60;40.90;;;;;;8464017;28;19965;-44
2022/07/10 11:06:43;;;;;;;;;;;25.60;40.90;;;;;;8464722;28;19908;-44
2022/07/10 11:10:44;;;;;;;;;;;25.60;40.90;;;;;;8463864;28;19912;-43
2022/07/10 11:14:46;;;;;;;;;;;25.60;40.80;;;;;;8464424;28;20273;-44
2022/07/10 11:18:51;;;;;;;;;;;25.70;40.90;;;;;;8464072;28;19911;-43
2022/07/10 11:22:55;;;;;;;;;;;25.70;40.90;;;;;;8463385;28;19913;-43
2022/07/10 11:27:04;;;;;;;;;;;25.70;40.90;;;;;;8464081;28;19908;-44
2022/07/10 11:31:04;;;;;;;;;;;25.70;40.90;;;;;;8464038;28;19912;-43
2022/07/10 11:35:14;;;;;;;;;;;25.80;40.90;;;;;;8463115;28;19920;-43
2022/07/10 11:39:16;;;;;;;;;;;25.80;40.90;;;;;;8463537;28;19957;-43
2022/07/10 11:43:17;;;;;;;;;;;25.80;40.90;;;;;;8463587;28;19907;-43
2022/07/10 11:47:17;;;;;;;;;;;25.80;40.90;;;;;;8462789;28;19923;-43
2022/07/10 11:51:22;;;;;;;;;;;25.80;40.80;;;;;;8463582;28;20287;-43
2022/07/10 11:55:23;;;;;;;;;;;25.90;40.90;;;;;;8463301;28;20014;-42
2022/07/10 11:59:25;;;;;;;;;;;25.90;40.90;;;;;;8465526;28;20383;-43
2022/07/10 12:03:25;;;;;;;;;;;25.90;40.80;;;;;;8470277;28;20311;-44
2022/07/10 12:07:26;;;;;;;;;;;25.90;40.80;;;;;;8469531;28;19950;-42
2022/07/10 12:11:26;;;;;;;;;;;25.90;40.80;;;;;;8470454;28;19915;-43
2022/07/10 12:15:31;;;;;;;;;;;26.00;40.80;;;;;;8469799;28;19969;-43
2022/07/10 12:19:36;;;;;;;;;;;26.00;40.70;;;;;;8469269;28;19915;-43
2022/07/10 12:23:40;;;;;;;;;;;26.00;40.70;;;;;;8469617;28;20002;-43
2022/07/10 12:27:41;;;;;;;;;;;26.00;40.60;;;;;;8469699;28;19911;-43
2022/07/10 12:31:41;;;;;;;;;;;26.10;40.70;;;;;;8469115;28;19925;-42
2022/07/10 12:35:53;;;;;;;;;;;26.10;40.70;;;;;;8468976;28;19926;-43
2022/07/10 12:39:54;;;;;;;;;;;26.20;40.70;;;;;;8469114;28;19908;-43
2022/07/10 12:43:54;;;;;;;;;;;26.10;40.60;;;;;;8468538;28;19918;-43
2022/07/10 12:47:54;;;;;;;;;;;26.10;40.60;;;;;;8468880;28;19916;-43
2022/07/10 12:51:55;;;;;;;;;;;26.10;40.70;;;;;;8468989;28;19919;-43
2022/07/10 12:55:55;;;;;;;;;;;26.10;40.70;;;;;;8468006;28;20274;-43
2022/07/10 13:00:02;;;;;;;;;;;26.10;40.70;;;;;;8468270;28;20073;-43
2022/07/10 13:04:03;;;;;;;;;;;26.10;40.70;;;;;;8468412;28;19953;-43
2022/07/10 13:08:16;;;;;;;;;;;26.10;40.70;;;;;;8467684;28;19981;-42
2022/07/10 13:12:17;;;;;;;;;;;26.10;40.70;;;;;;8466415;28;19908;-43
2022/07/10 13:16:17;;;;;;;;;;;26.10;40.70;;;;;;8467986;28;19923;-43
2022/07/10 13:20:18;;;;;;;;;;;26.10;40.70;;;;;;8467330;28;19912;-43
2022/07/10 13:24:18;;;;;;;;;;;26.10;40.70;;;;;;8467770;28;20353;-43
2022/07/10 13:28:19;;;;;;;;;;;26.20;40.80;;;;;;8467573;28;19912;-42
2022/07/10 13:32:19;;;;;;;;;;;26.20;40.70;;;;;;8467238;28;19908;-43
2022/07/10 13:36:20;;;;;;;;;;;26.10;40.70;;;;;;8467303;28;19920;-43
2022/07/10 13:40:20;;;;;;;;;;;26.20;40.70;;;;;;8467255;28;19908;-42
2022/07/10 13:44:21;;;;;;;;;;;26.20;40.70;;;;;;8466613;28;19954;-43
2022/07/10 13:48:21;;;;;;;;;;;26.10;40.70;;;;;;8467183;28;19919;-44
2022/07/10 13:52:22;;;;;;;;;;;26.10;40.70;;;;;;8467175;28;19915;-43
2022/07/10 13:56:23;;;;;;;;;;;26.10;40.70;;;;;;8466165;28;19930;-44
2022/07/10 14:00:24;;;;;;;;;;;26.10;40.70;;;;;;8466804;28;20387;-44
2022/07/10 14:04:24;;;;;;;;;;;26.20;40.80;;;;;;8466565;28;19911;-45
2022/07/10 14:08:25;;;;;;;;;;;26.20;40.70;;;;;;8466173;28;20376;-43
2022/07/10 14:12:25;;;;;;;;;;;26.20;40.70;;;;;;8466645;28;19923;-44
2022/07/10 14:16:26;;;;;;;;;;;26.20;40.70;;;;;;8465519;28;20379;-42
2022/07/10 14:20:26;;;;;;;;;;;26.20;40.60;;;;;;8466067;28;19916;-44
2022/07/10 14:24:27;;;;;;;;;;;26.20;40.70;;;;;;8465688;28;19969;-44
2022/07/10 14:28:27;;;;;;;;;;;26.20;40.60;;;;;;8465324;28;19922;-43
2022/07/10 14:32:28;;;;;;;;;;;26.20;40.70;;;;;;8466001;28;19956;-44
2022/07/10 14:36:28;;;;;;;;;;;26.20;40.70;;;;;;8465281;28;19920;-43
2022/07/10 14:40:29;;;;;;;;;;;26.20;40.60;;;;;;8464765;28;19908;-43
2022/07/10 14:44:29;;;;;;;;;;;26.20;40.60;;;;;;8465116;28;19992;-44
2022/07/10 14:48:30;;;;;;;;;;;26.20;40.60;;;;;;8447059;28;19908;-43
2022/07/10 14:52:33;;;;;;;;;;;26.20;40.60;;;;;;8464720;28;19912;-45
2022/07/10 14:56:33;;;;;;;;;;;26.30;40.60;;;;;;8429559;28;19927;-43
2022/07/10 15:00:34;;;;;;;;;;;26.30;40.60;;;;;;8448649;28;19907;-43
2022/07/10 15:04:34;;;;;;;;;;;26.30;40.60;;;;;;8464423;28;19912;-44
2022/07/10 15:08:34;;;;;;;;;;;26.30;40.60;;;;;;8464659;28;20383;-42
2022/07/10 15:12:36;;;;;;;;;;;26.40;40.60;;;;;;8464706;28;19958;-44
2022/07/10 15:16:37;;;;;;;;;;;26.40;40.50;;;;;;8463581;28;19916;-43
2022/07/10 15:20:37;;;;;;;;;;;26.40;40.50;;;;;;8464313;28;20368;-44
2022/07/10 15:24:39;;;;;;;;;;;26.40;40.50;;;;;;8464066;28;19908;-43
2022/07/10 15:28:40;;;;;;;;;;;26.40;40.50;;;;;;8463397;28;20365;-43
2022/07/10 15:32:40;;;;;;;;;;;26.40;40.40;;;;;;8463164;28;19919;-43
2022/07/10 15:36:41;;;;;;;;;;;26.40;40.40;;;;;;8463370;28;19920;-44
2022/07/10 15:40:41;;;;;;;;;;;26.40;40.30;;;;;;8463195;28;19915;-44
2022/07/10 15:44:42;;;;;;;;;;;26.40;40.40;;;;;;8463473;28;19908;-45
2022/07/10 15:48:42;;;;;;;;;;;26.40;40.40;;;;;;8463884;28;19996;-44
2022/07/10 15:52:42;;;;;;;;;;;26.40;40.40;;;;;;8462986;28;19911;-43
2022/07/10 15:56:44;;;;;;;;;;;26.50;40.50;;;;;;8463273;28;19919;-43
2022/07/10 16:00:44;;;;;;;;;;;26.40;40.30;;;;;;8463356;28;20348;-44
2022/07/10 16:04:45;;;;;;;;;;;26.40;40.40;;;;;;8461448;28;19919;-43
2022/07/10 16:08:45;;;;;;;;;;;26.40;40.40;;;;;;8463467;28;19909;-44
2022/07/10 16:12:46;;;;;;;;;;;26.40;40.40;;;;;;8463142;28;20356;-44
2022/07/10 16:16:46;;;;;;;;;;;26.40;40.50;;;;;;8462661;28;19923;-45
2022/07/10 16:20:47;;;;;;;;;;;26.40;40.50;;;;;;8463061;28;20501;-43
2022/07/10 16:29:06;;;;;;;;;;;26.30;40.50;;;;;;8462878;28;20029;-43
2022/07/10 16:33:06;;;;;;;;;;;26.30;40.50;;;;;;8462995;28;19912;-43
2022/07/10 16:37:07;;;;;;;;;;;26.30;40.50;;;;;;8462959;28;20347;-43
2022/07/10 16:41:07;;;;;;;;;;;26.30;40.50;;;;;;8462181;28;19969;-43
2022/07/10 16:45:08;;;;;;;;;;;26.30;40.50;;;;;;8464711;28;19918;-42
2022/07/10 16:49:08;;;;;;;;;;;26.30;40.50;;;;;;8469127;28;19912;-42
2022/07/10 16:53:09;;;;;;;;;;;26.30;40.50;;;;;;8468249;28;19961;-42
2022/07/10 16:57:09;;;;;;;;;;;26.40;40.50;;;;;;8468527;28;19915;-42
2022/07/10 17:01:12;;;;;;;;;;;26.30;40.50;;;;;;8468545;28;19911;-42
2022/07/10 17:05:13;;;;;;;;;;;26.30;40.40;;;;;;8467894;28;19919;-42
2022/07/10 17:09:14;;;;;;;;;;;26.30;40.40;;;;;;8468468;28;20045;-42
2022/07/10 17:13:14;;;;;;;;;;;26.30;40.20;;;;;;8467942;28;19918;-42
2022/07/10 17:17:15;;;;;;;;;;;26.30;40.20;;;;;;8467473;28;19911;-42
2022/07/10 17:21:17;;;;;;;;;;;26.30;40.10;;;;;;8467866;28;20006;-42
2022/07/10 17:25:17;;;;;;;;;;;26.30;40.20;;;;;;8467692;28;20291;-42
2022/07/10 17:29:17;;;;;;;;;;;26.30;40.20;;;;;;8467394;28;19916;-42
2022/07/10 17:33:18;;;;;;;;;;;26.30;40.30;;;;;;8467390;28;20268;-42
2022/07/10 17:37:18;;;;;;;;;;;26.30;40.30;;;;;;8467497;28;19988;-42
2022/07/10 17:41:19;;;;;;;;;;;26.30;40.20;;;;;;8466807;28;19957;-42
2022/07/10 17:45:20;;;;;;;;;;;26.30;40.20;;;;;;8467210;28;19918;-42
2022/07/10 17:49:20;;;;;;;;;;;26.30;40.20;;;;;;8467419;28;20348;-44
2022/07/10 17:53:21;;;;;;;;;;;26.30;40.20;;;;;;8466400;28;19912;-43
2022/07/10 17:57:23;;;;;;;;;;;26.20;40.10;;;;;;8465749;27;19911;-44
2022/07/10 18:01:23;;;;;;;;;;;26.20;40.20;;;;;;8448279;28;19915;-46
2022/07/10 18:05:24;;;;;;;;;;;26.20;40.20;;;;;;8466098;28;19912;-42
2022/07/10 18:09:24;;;;;;;;;;;26.20;40.20;;;;;;8466937;28;20276;-43
2022/07/10 18:13:25;;;;;;;;;;;26.20;40.20;;;;;;8464889;28;19920;-43
2022/07/10 18:17:25;;;;;;;;;;;26.20;40.20;;;;;;8465960;28;19912;-42
2022/07/10 18:21:26;;;;;;;;;;;26.20;40.30;;;;;;8465933;28;19918;-43
2022/07/10 18:25:27;;;;;;;;;;;26.20;40.20;;;;;;8465312;28;20336;-43
2022/07/10 18:29:27;;;;;;;;;;;26.20;40.30;;;;;;8466081;28;19914;-43
2022/07/10 18:37:47;;;;;;;;;;;26.20;40.20;;;;;;8465157;28;20057;-43
2022/07/10 18:41:47;;;;;;;;;;;26.20;40.30;;;;;;8465642;28;19915;-43
2022/07/10 18:45:48;;;;;;;;;;;26.20;40.30;;;;;;8465335;28;20416;-43
2022/07/10 18:49:48;;;;;;;;;;;26.20;40.30;;;;;;8464860;28;19961;-44
2022/07/10 18:53:49;;;;;;;;;;;26.20;40.30;;;;;;8464885;28;19920;-42
2022/07/10 18:57:49;;;;;;;;;;;26.20;40.30;;;;;;8464983;28;20314;-43
2022/07/10 19:01:50;;;;;;;;;;;26.10;40.30;;;;;;8464244;28;20317;-45
2022/07/10 19:05:50;;;;;;;;;;;26.10;40.30;;;;;;8464491;28;19918;-43
2022/07/10 19:09:51;;;;;;;;;;;26.10;40.30;;;;;;8463307;28;19930;-43
2022/07/10 19:13:52;;;;;;;;;;;26.10;40.80;;;;;;8463885;28;20006;-44
2022/07/10 19:17:53;;;;;;;;;;;26.10;40.30;;;;;;8464103;28;20353;-44
2022/07/10 19:21:54;;;;;;;;;;;26.10;40.30;;;;;;8464340;28;19953;-44
2022/07/10 19:25:54;;;;;;;;;;;26.10;40.30;;;;;;8463507;28;19911;-43
2022/07/10 19:29:54;;;;;;;;;;;26.10;40.40;;;;;;8464123;28;20375;-44
2022/07/10 19:33:55;;;;;;;;;;;26.00;40.30;;;;;;8463727;28;19920;-44
2022/07/10 19:37:55;;;;;;;;;;;26.00;40.30;;;;;;8463230;28;19912;-43
2022/07/10 19:41:56;;;;;;;;;;;26.00;40.30;;;;;;8463602;28;20265;-44
2022/07/10 19:45:56;;;;;;;;;;;26.00;40.40;;;;;;8463539;28;19911;-43
2022/07/10 19:49:57;;;;;;;;;;;26.00;40.30;;;;;;8463211;28;19998;-43
2022/07/10 19:53:57;;;;;;;;;;;26.00;40.80;;;;;;8463385;28;20394;-43
2022/07/10 19:57:58;;;;;;;;;;;25.90;40.30;;;;;;8463510;28;19959;-43
2022/07/10 20:01:58;;;;;;;;;;;25.90;40.30;;;;;;8462784;28;19951;-43
2022/07/10 20:05:59;;;;;;;;;;;25.90;40.30;;;;;;8463596;28;19911;-43
2022/07/10 20:10:00;;;;;;;;;;;25.90;40.30;;;;;;8463603;28;19991;-44
2022/07/10 20:14:01;;;;;;;;;;;26.00;40.40;;;;;;8462485;28;19919;-45
2022/07/10 20:18:01;;;;;;;;;;;25.90;40.30;;;;;;8462975;28;19912;-44
2022/07/10 20:22:03;;;;;;;;;;;25.90;40.30;;;;;;8468567;28;20322;-43
2022/07/10 20:26:03;;;;;;;;;;;25.90;40.30;;;;;;8469252;28;20348;-43
2022/07/10 20:30:04;;;;;;;;;;;25.90;40.30;;;;;;8469798;28;19908;-43
2022/07/10 20:34:04;;;;;;;;;;;25.90;40.30;;;;;;8469403;28;20284;-43
2022/07/10 20:38:05;;;;;;;;;;;25.90;40.30;;;;;;8468825;28;19911;-44
2022/07/10 20:42:06;;;;;;;;;;;25.90;40.30;;;;;;8469374;28;19981;-43
2022/07/10 20:46:06;;;;;;;;;;;25.90;40.30;;;;;;8469168;28;19919;-44
2022/07/10 20:50:07;;;;;;;;;;;25.90;40.30;;;;;;8468731;28;19908;-44
2022/07/10 20:54:08;;;;;;;;;;;25.90;40.30;;;;;;8468976;28;19923;-44
2022/07/10 20:58:08;;;;;;;;;;;25.80;40.30;;;;;;8468728;28;20369;-44
2022/07/10 21:02:09;;;;;;;;;;;25.80;40.20;;;;;;8468139;28;20360;-43
2022/07/10 21:06:09;;;;;;;;;;;25.80;40.20;;;;;;8468615;28;19908;-43
2022/07/10 21:10:10;;;;;;;;;;;25.80;40.30;;;;;;8468489;28;20380;-44
2022/07/10 21:14:10;;;;;;;;;;;25.80;40.20;;;;;;8467649;28;19923;-42
2022/07/10 21:18:11;;;;;;;;;;;25.80;40.20;;;;;;8468001;28;19919;-43
2022/07/10 21:22:11;;;;;;;;;;;25.80;40.20;;;;;;8467900;28;20377;-42
2022/07/10 21:26:12;;;;;;;;;;;25.80;40.20;;;;;;8467165;28;19954;-43
2022/07/10 21:30:12;;;;;;;;;;;25.80;40.10;;;;;;8467789;28;20329;-43
2022/07/10 21:34:13;;;;;;;;;;;25.70;40.10;;;;;;8467279;28;20360;-44
2022/07/10 21:38:13;;;;;;;;;;;25.70;40.10;;;;;;8466841;28;19911;-44
2022/07/10 21:42:14;;;;;;;;;;;25.70;40.20;;;;;;8467164;28;20372;-42
2022/07/10 21:46:14;;;;;;;;;;;25.70;40.10;;;;;;8467318;28;19996;-42
2022/07/10 21:50:14;;;;;;;;;;;25.70;40.20;;;;;;8466888;28;19946;-43
2022/07/10 21:54:15;;;;;;;;;;;25.70;40.10;;;;;;8467120;28;19920;-42
2022/07/10 21:58:15;;;;;;;;;;;25.60;40.00;;;;;;8466555;28;19918;-43
2022/07/10 22:02:17;;;;;;;;;;;25.60;40.10;;;;;;8455688;28;20330;-43
2022/07/10 22:06:18;;;;;;;;;;;25.60;40.60;;;;;;8466744;28;19957;-43
2022/07/10 22:10:21;;;;;;;;;;;25.60;40.10;;;;;;8453286;28;19911;-43
2022/07/10 22:14:22;;;;;;;;;;;25.60;40.10;;;;;;8465695;28;19926;-43
2022/07/10 22:18:22;;;;;;;;;;;25.60;40.00;;;;;;8466014;28;19915;-43
2022/07/10 22:22:23;;;;;;;;;;;25.60;40.10;;;;;;8466270;28;20313;-43
2022/07/10 22:26:23;;;;;;;;;;;25.60;40.10;;;;;;8466077;28;19907;-43
2022/07/10 22:34:43;;;;;;;;;;;25.60;40.00;;;;;;8466980;28;19926;-43
2022/07/10 22:38:43;;;;;;;;;;;25.60;40.10;;;;;;8465373;28;19911;-42
2022/07/10 22:42:44;;;;;;;;;;;25.50;40.00;;;;;;8464943;28;19912;-43
2022/07/10 22:46:44;;;;;;;;;;;25.50;40.10;;;;;;8464648;28;19923;-42
2022/07/10 22:50:45;;;;;;;;;;;25.50;40.00;;;;;;8465571;28;19907;-43
2022/07/10 22:54:45;;;;;;;;;;;25.50;40.00;;;;;;8465426;28;20299;-42
2022/07/10 22:58:46;;;;;;;;;;;25.50;40.10;;;;;;8464357;28;19915;-42
2022/07/10 23:02:46;;;;;;;;;;;25.50;40.10;;;;;;8464713;28;20276;-43
2022/07/10 23:06:46;;;;;;;;;;;25.50;40.10;;;;;;8464675;28;19914;-43
2022/07/10 23:10:48;;;;;;;;;;;25.40;40.00;;;;;;8464251;28;19912;-43
2022/07/10 23:14:50;;;;;;;;;;;25.40;40.10;;;;;;8464134;28;19981;-43
2022/07/10 23:18:50;;;;;;;;;;;25.40;40.00;;;;;;8464314;28;20348;-43
2022/07/10 23:22:51;;;;;;;;;;;25.40;40.00;;;;;;8463547;28;19919;-43
2022/07/10 23:26:51;;;;;;;;;;;25.40;40.00;;;;;;8464127;28;19914;-42
2022/07/10 23:30:52;;;;;;;;;;;25.40;40.00;;;;;;8464056;28;19908;-43
2022/07/10 23:34:53;;;;;;;;;;;25.40;40.00;;;;;;8463287;28;19924;-43
2022/07/10 23:38:53;;;;;;;;;;;25.40;40.10;;;;;;8463727;28;19945;-43